sensor_id;sensor_type;location;lat;lon;timestamp;temperature;humidity
19654;DHT22;9975;48.046;7.804;2022-10-19T01:57:38;12.60;99.90
19654;DHT22;9975;48.046;7.804;2022-10-19T02:00:06;12.70;99.90
19654;DHT22;9975;48.046;7.804;2022-10-19T02:02:53;12.70;99.90
19654;DHT22;9975;48.046;7.804;2022-10-19T02:05:22;12.80;99.90
19654;DHT22;9975;48.046;7.804;2022-10-19T02:07:53;12.80;99.90
19654;DHT22;9975;48.046;7.804;2022-10-19T02:10:20;12.80;99.90
19654;DHT22;9975;48.046;7.804;2022-10-19T02:12:47;12.80;99.90
19654;DHT22;9975;48.046;7.804;2022-10-19T02:15:17;12.90;99.90
19654;DHT22;9975;48.046;7.804;2022-10-19T02:17:47;12.90;99.90
19654;DHT22;9975;48.046;7.804;2022-10-19T02:20:15;12.90;99.90
19654;DHT22;9975;48.046;7.804;2022-10-19T02:22:41;13.00;99.90
19654;DHT22;9975;48.046;7.804;2022-10-19T02:25:08;13.10;99.90
19654;DHT22;9975;48.046;7.804;2022-10-19T02:27:36;13.10;99.90
19654;DHT22;9975;48.046;7.804;2022-10-19T02:30:03;13.10;99.90
19654;DHT22;9975;48.046;7.804;2022-10-19T02:32:29;13.20;99.90
19654;DHT22;9975;48.046;7.804;2022-10-19T02:34:54;13.20;99.90
19654;DHT22;9975;48.046;7.804;2022-10-19T02:37:20;13.20;99.90
19654;DHT22;9975;48.046;7.804;2022-10-19T02:39:47;13.10;99.90
19654;DHT22;9975;48.046;7.804;2022-10-19T02:42:16;13.10;99.90
19654;DHT22;9975;48.046;7.804;2022-10-19T02:44:51;13.10;99.90
19654;DHT22;9975;48.046;7.804;2022-10-19T02:47:34;13.10;99.90
19654;DHT22;9975;48.046;7.804;2022-10-19T02:50:04;13.20;99.90
19654;DHT22;9975;48.046;7.804;2022-10-19T02:52:30;13.20;99.90
19654;DHT22;9975;48.046;7.804;2022-10-19T02:54:56;13.30;99.90
19654;DHT22;9975;48.046;7.804;2022-10-19T02:57:23;13.30;99.90
19654;DHT22;9975;48.046;7.804;2022-10-19T02:59:50;13.30;99.90
19654;DHT22;9975;48.046;7.804;2022-10-19T03:02:17;13.40;99.90
19654;DHT22;9975;48.046;7.804;2022-10-19T03:04:44;13.40;99.90
19654;DHT22;9975;48.046;7.804;2022-10-19T03:07:12;13.50;99.90
19654;DHT22;9975;48.046;7.804;2022-10-19T03:09:39;13.50;99.90
19654;DHT22;9975;48.046;7.804;2022-10-19T03:12:05;13.50;99.90
19654;DHT22;9975;48.046;7.804;2022-10-19T03:14:31;13.60;99.90
19654;DHT22;9975;48.046;7.804;2022-10-19T03:16:57;13.70;99.90
19654;DHT22;9975;48.046;7.804;2022-10-19T03:19:22;13.70;99.90
19654;DHT22;9975;48.046;7.804;2022-10-19T03:21:48;13.70;99.90
19654;DHT22;9975;48.046;7.804;2022-10-19T03:24:14;13.70;99.90
19654;DHT22;9975;48.046;7.804;2022-10-19T03:26:40;13.70;99.90
19654;DHT22;9975;48.046;7.804;2022-10-19T03:29:05;13.70;99.90
19654;DHT22;9975;48.046;7.804;2022-10-19T03:31:31;13.70;99.90
19654;DHT22;9975;48.046;7.804;2022-10-19T03:33:56;13.70;99.90
19654;DHT22;9975;48.046;7.804;2022-10-19T03:36:28;13.70;99.90
19654;DHT22;9975;48.046;7.804;2022-10-19T03:39:00;13.80;99.90
19654;DHT22;9975;48.046;7.804;2022-10-19T03:41:27;13.70;99.90
19654;DHT22;9975;48.046;7.804;2022-10-19T03:43:53;13.70;99.90
19654;DHT22;9975;48.046;7.804;2022-10-19T03:46:20;13.70;99.90
19654;DHT22;9975;48.046;7.804;2022-10-19T03:48:46;13.60;99.90
19654;DHT22;9975;48.046;7.804;2022-10-19T03:51:18;13.60;99.90
19654;DHT22;9975;48.046;7.804;2022-10-19T03:53:44;13.60;99.90
19654;DHT22;9975;48.046;7.804;2022-10-19T03:56:13;13.60;99.90
19654;DHT22;9975;48.046;7.804;2022-10-19T03:58:40;13.60;99.90
19654;DHT22;9975;48.046;7.804;2022-10-19T04:04:01;13.70;99.90
19654;DHT22;9975;48.046;7.804;2022-10-19T04:06:28;13.60;99.90
19654;DHT22;9975;48.046;7.804;2022-10-19T04:08:55;13.70;99.90
19654;DHT22;9975;48.046;7.804;2022-10-19T04:11:23;13.70;99.90
19654;DHT22;9975;48.046;7.804;2022-10-19T04:13:50;13.60;99.90
19654;DHT22;9975;48.046;7.804;2022-10-19T04:16:17;13.70;99.90
19654;DHT22;9975;48.046;7.804;2022-10-19T04:18:43;13.70;99.90
19654;DHT22;9975;48.046;7.804;2022-10-19T04:21:28;13.60;99.90
19654;DHT22;9975;48.046;7.804;2022-10-19T04:24:07;13.70;99.90
19654;DHT22;9975;48.046;7.804;2022-10-19T04:26:38;13.60;99.90
19654;DHT22;9975;48.046;7.804;2022-10-19T04:29:04;13.60;99.90
19654;DHT22;9975;48.046;7.804;2022-10-19T04:31:29;13.70;99.90
19654;DHT22;9975;48.046;7.804;2022-10-19T04:33:55;13.70;99.90
19654;DHT22;9975;48.046;7.804;2022-10-19T04:36:22;13.60;99.90
19654;DHT22;9975;48.046;7.804;2022-10-19T04:38:47;13.50;99.90
19654;DHT22;9975;48.046;7.804;2022-10-19T04:41:15;13.50;99.90
19654;DHT22;9975;48.046;7.804;2022-10-19T04:43:41;13.50;99.90
19654;DHT22;9975;48.046;7.804;2022-10-19T04:46:15;13.50;99.90
19654;DHT22;9975;48.046;7.804;2022-10-19T04:48:41;13.50;99.90
19654;DHT22;9975;48.046;7.804;2022-10-19T04:51:08;13.50;99.90
19654;DHT22;9975;48.046;7.804;2022-10-19T04:53:36;13.50;99.90
19654;DHT22;9975;48.046;7.804;2022-10-19T04:56:07;13.60;99.90
19654;DHT22;9975;48.046;7.804;2022-10-19T04:58:33;13.60;99.90
19654;DHT22;9975;48.046;7.804;2022-10-19T05:01:06;13.60;99.90
19654;DHT22;9975;48.046;7.804;2022-10-19T05:03:32;13.60;99.90
19654;DHT22;9975;48.046;7.804;2022-10-19T05:05:58;13.50;99.90
19654;DHT22;9975;48.046;7.804;2022-10-19T05:08:23;13.50;99.90
19654;DHT22;9975;48.046;7.804;2022-10-19T05:10:49;13.50;99.90
19654;DHT22;9975;48.046;7.804;2022-10-19T05:13:15;13.50;99.90
19654;DHT22;9975;48.046;7.804;2022-10-19T05:15:40;13.50;99.90
19654;DHT22;9975;48.046;7.804;2022-10-19T05:18:06;13.50;99.90
19654;DHT22;9975;48.046;7.804;2022-10-19T05:20:33;13.50;99.90
19654;DHT22;9975;48.046;7.804;2022-10-19T05:22:58;13.60;99.90
19654;DHT22;9975;48.046;7.804;2022-10-19T05:25:24;13.60;99.90
19654;DHT22;9975;48.046;7.804;2022-10-19T05:27:51;13.50;99.90
19654;DHT22;9975;48.046;7.804;2022-10-19T05:30:17;13.50;99.90
19654;DHT22;9975;48.046;7.804;2022-10-19T05:32:43;13.50;99.90
19654;DHT22;9975;48.046;7.804;2022-10-19T05:35:09;13.50;99.90
19654;DHT22;9975;48.046;7.804;2022-10-19T05:37:34;13.50;99.90
19654;DHT22;9975;48.046;7.804;2022-10-19T05:40:00;13.50;99.90
19654;DHT22;9975;48.046;7.804;2022-10-19T05:42:25;13.50;99.90
19654;DHT22;9975;48.046;7.804;2022-10-19T05:44:51;13.50;99.90
19654;DHT22;9975;48.046;7.804;2022-10-19T05:47:17;13.50;99.90
19654;DHT22;9975;48.046;7.804;2022-10-19T05:49:42;13.50;99.90
19654;DHT22;9975;48.046;7.804;2022-10-19T05:52:08;13.50;99.90
19654;DHT22;9975;48.046;7.804;2022-10-19T05:54:33;13.50;99.90
19654;DHT22;9975;48.046;7.804;2022-10-19T05:57:00;13.40;99.90
19654;DHT22;9975;48.046;7.804;2022-10-19T05:59:26;13.50;99.90
19654;DHT22;9975;48.046;7.804;2022-10-19T06:02:01;13.40;99.90
19654;DHT22;9975;48.046;7.804;2022-10-19T06:04:27;13.40;99.90
19654;DHT22;9975;48.046;7.804;2022-10-19T06:06:53;13.40;99.90
19654;DHT22;9975;48.046;7.804;2022-10-19T06:09:18;13.40;99.90
19654;DHT22;9975;48.046;7.804;2022-10-19T06:11:44;13.40;99.90
19654;DHT22;9975;48.046;7.804;2022-10-19T06:14:13;13.40;99.90
19654;DHT22;9975;48.046;7.804;2022-10-19T06:16:39;13.40;99.90
19654;DHT22;9975;48.046;7.804;2022-10-19T06:19:05;13.40;99.90
19654;DHT22;9975;48.046;7.804;2022-10-19T06:21:31;13.40;99.90
19654;DHT22;9975;48.046;7.804;2022-10-19T06:23:59;13.30;99.90
19654;DHT22;9975;48.046;7.804;2022-10-19T06:26:26;13.40;99.90
19654;DHT22;9975;48.046;7.804;2022-10-19T06:28:55;13.40;99.90
19654;DHT22;9975;48.046;7.804;2022-10-19T06:31:21;13.40;99.90
19654;DHT22;9975;48.046;7.804;2022-10-19T06:33:46;13.40;99.90
19654;DHT22;9975;48.046;7.804;2022-10-19T06:36:17;13.40;99.90
19654;DHT22;9975;48.046;7.804;2022-10-19T06:38:44;13.40;99.90
19654;DHT22;9975;48.046;7.804;2022-10-19T06:41:10;13.40;99.90
19654;DHT22;9975;48.046;7.804;2022-10-19T06:43:36;13.50;99.90
19654;DHT22;9975;48.046;7.804;2022-10-19T06:46:07;13.40;99.90
19654;DHT22;9975;48.046;7.804;2022-10-19T06:48:33;13.50;99.90
19654;DHT22;9975;48.046;7.804;2022-10-19T06:51:01;13.50;99.90
19654;DHT22;9975;48.046;7.804;2022-10-19T06:53:27;13.50;99.90
19654;DHT22;9975;48.046;7.804;2022-10-19T06:55:59;13.50;99.90
19654;DHT22;9975;48.046;7.804;2022-10-19T06:58:26;13.50;99.90
19654;DHT22;9975;48.046;7.804;2022-10-19T07:00:58;13.50;99.90
19654;DHT22;9975;48.046;7.804;2022-10-19T07:03:26;13.50;99.90
19654;DHT22;9975;48.046;7.804;2022-10-19T07:05:56;13.50;99.90
19654;DHT22;9975;48.046;7.804;2022-10-19T07:08:23;13.50;99.90
19654;DHT22;9975;48.046;7.804;2022-10-19T07:10:53;13.50;99.90
19654;DHT22;9975;48.046;7.804;2022-10-19T07:13:19;13.50;99.90
19654;DHT22;9975;48.046;7.804;2022-10-19T07:15:46;13.60;99.90
19654;DHT22;9975;48.046;7.804;2022-10-19T07:18:11;13.60;99.90
19654;DHT22;9975;48.046;7.804;2022-10-19T07:20:37;13.60;99.90
19654;DHT22;9975;48.046;7.804;2022-10-19T07:23:03;13.50;99.90
19654;DHT22;9975;48.046;7.804;2022-10-19T07:25:29;13.50;99.90
19654;DHT22;9975;48.046;7.804;2022-10-19T07:27:55;13.50;99.90
19654;DHT22;9975;48.046;7.804;2022-10-19T07:30:21;13.50;99.90
19654;DHT22;9975;48.046;7.804;2022-10-19T07:32:47;13.50;99.90
19654;DHT22;9975;48.046;7.804;2022-10-19T07:35:13;13.50;99.90
19654;DHT22;9975;48.046;7.804;2022-10-19T07:37:39;13.50;99.90
19654;DHT22;9975;48.046;7.804;2022-10-19T07:40:05;13.50;99.90
19654;DHT22;9975;48.046;7.804;2022-10-19T07:42:31;13.60;99.90
19654;DHT22;9975;48.046;7.804;2022-10-19T07:44:57;13.50;99.90
19654;DHT22;9975;48.046;7.804;2022-10-19T07:47:22;13.50;99.90
19654;DHT22;9975;48.046;7.804;2022-10-19T07:49:48;13.40;99.90
19654;DHT22;9975;48.046;7.804;2022-10-19T07:52:14;13.40;99.90
19654;DHT22;9975;48.046;7.804;2022-10-19T07:54:39;13.30;99.90
19654;DHT22;9975;48.046;7.804;2022-10-19T07:57:05;13.40;99.90
19654;DHT22;9975;48.046;7.804;2022-10-19T07:59:31;13.50;99.90
19654;DHT22;9975;48.046;7.804;2022-10-19T08:01:56;13.50;99.90
19654;DHT22;9975;48.046;7.804;2022-10-19T08:04:23;13.50;99.90
19654;DHT22;9975;48.046;7.804;2022-10-19T08:06:49;13.50;99.90
19654;DHT22;9975;48.046;7.804;2022-10-19T08:09:14;13.50;99.90
19654;DHT22;9975;48.046;7.804;2022-10-19T08:11:40;13.50;99.90
19654;DHT22;9975;48.046;7.804;2022-10-19T08:14:06;13.60;99.90
19654;DHT22;9975;48.046;7.804;2022-10-19T08:16:33;13.70;99.90
19654;DHT22;9975;48.046;7.804;2022-10-19T08:19:04;13.70;99.90
19654;DHT22;9975;48.046;7.804;2022-10-19T08:21:31;13.80;99.90
19654;DHT22;9975;48.046;7.804;2022-10-19T08:23:57;13.80;99.90
19654;DHT22;9975;48.046;7.804;2022-10-19T08:26:24;13.80;99.90
19654;DHT22;9975;48.046;7.804;2022-10-19T08:28:49;13.80;99.90
19654;DHT22;9975;48.046;7.804;2022-10-19T08:31:20;13.80;99.90
19654;DHT22;9975;48.046;7.804;2022-10-19T08:33:48;13.80;99.90
19654;DHT22;9975;48.046;7.804;2022-10-19T08:36:14;13.80;99.90
19654;DHT22;9975;48.046;7.804;2022-10-19T08:38:40;13.80;99.90
19654;DHT22;9975;48.046;7.804;2022-10-19T08:41:29;13.70;99.90
19654;DHT22;9975;48.046;7.804;2022-10-19T08:49:20;13.80;99.90
19654;DHT22;9975;48.046;7.804;2022-10-19T08:52:15;13.90;99.90
19654;DHT22;9975;48.046;7.804;2022-10-19T08:54:58;13.90;99.90
19654;DHT22;9975;48.046;7.804;2022-10-19T08:57:46;13.80;99.90
19654;DHT22;9975;48.046;7.804;2022-10-19T09:00:23;13.70;99.90
19654;DHT22;9975;48.046;7.804;2022-10-19T09:03:22;13.80;99.90
19654;DHT22;9975;48.046;7.804;2022-10-19T09:08:29;13.70;99.90
19654;DHT22;9975;48.046;7.804;2022-10-19T09:10:55;13.70;99.90
19654;DHT22;9975;48.046;7.804;2022-10-19T09:13:41;13.80;99.90
19654;DHT22;9975;48.046;7.804;2022-10-19T09:16:15;13.80;99.90
19654;DHT22;9975;48.046;7.804;2022-10-19T09:18:43;13.90;99.90
19654;DHT22;9975;48.046;7.804;2022-10-19T09:21:20;14.00;99.90
19654;DHT22;9975;48.046;7.804;2022-10-19T09:23:58;14.10;99.90
19654;DHT22;9975;48.046;7.804;2022-10-19T09:26:45;14.10;99.90
19654;DHT22;9975;48.046;7.804;2022-10-19T09:32:00;14.00;99.90
19654;DHT22;9975;48.046;7.804;2022-10-19T09:34:35;14.00;99.90
19654;DHT22;9975;48.046;7.804;2022-10-19T09:37:02;14.20;99.90
19654;DHT22;9975;48.046;7.804;2022-10-19T09:39:29;14.10;99.90
19654;DHT22;9975;48.046;7.804;2022-10-19T09:41:57;14.20;99.90
19654;DHT22;9975;48.046;7.804;2022-10-19T09:44:24;14.30;99.90
19654;DHT22;9975;48.046;7.804;2022-10-19T09:47:01;14.40;99.90
19654;DHT22;9975;48.046;7.804;2022-10-19T09:49:46;14.40;99.90
19654;DHT22;9975;48.046;7.804;2022-10-19T09:52:33;14.50;99.90
19654;DHT22;9975;48.046;7.804;2022-10-19T09:55:16;14.70;99.90
19654;DHT22;9975;48.046;7.804;2022-10-19T09:57:47;14.70;99.90
19654;DHT22;9975;48.046;7.804;2022-10-19T10:00:24;14.80;99.90
19654;DHT22;9975;48.046;7.804;2022-10-19T10:02:52;14.80;99.90
19654;DHT22;9975;48.046;7.804;2022-10-19T10:05:19;14.80;99.90
19654;DHT22;9975;48.046;7.804;2022-10-19T10:07:54;14.90;99.90
19654;DHT22;9975;48.046;7.804;2022-10-19T10:10:28;15.00;99.90
19654;DHT22;9975;48.046;7.804;2022-10-19T10:12:55;14.90;99.90
19654;DHT22;9975;48.046;7.804;2022-10-19T10:15:24;15.00;99.90
19654;DHT22;9975;48.046;7.804;2022-10-19T10:17:51;15.00;99.90
19654;DHT22;9975;48.046;7.804;2022-10-19T10:22:58;15.20;99.90
19654;DHT22;9975;48.046;7.804;2022-10-19T10:25:33;15.10;99.90
19654;DHT22;9975;48.046;7.804;2022-10-19T10:28:16;15.20;99.90
19654;DHT22;9975;48.046;7.804;2022-10-19T10:30:44;15.30;99.90
19654;DHT22;9975;48.046;7.804;2022-10-19T10:33:19;15.40;99.90
19654;DHT22;9975;48.046;7.804;2022-10-19T10:35:52;15.40;99.90
19654;DHT22;9975;48.046;7.804;2022-10-19T10:38:31;15.30;99.90
19654;DHT22;9975;48.046;7.804;2022-10-19T10:41:03;15.30;99.90
19654;DHT22;9975;48.046;7.804;2022-10-19T10:43:35;15.30;99.90
19654;DHT22;9975;48.046;7.804;2022-10-19T10:46:14;15.30;99.90
19654;DHT22;9975;48.046;7.804;2022-10-19T10:48:43;15.30;99.90
19654;DHT22;9975;48.046;7.804;2022-10-19T11:05:02;15.50;99.90
19654;DHT22;9975;48.046;7.804;2022-10-19T11:07:32;15.50;99.90
19654;DHT22;9975;48.046;7.804;2022-10-19T11:10:06;15.50;99.90
19654;DHT22;9975;48.046;7.804;2022-10-19T11:12:42;15.60;99.90
19654;DHT22;9975;48.046;7.804;2022-10-19T11:15:24;15.70;99.90
19654;DHT22;9975;48.046;7.804;2022-10-19T11:18:17;15.70;99.90
19654;DHT22;9975;48.046;7.804;2022-10-19T11:21:04;15.80;99.90
19654;DHT22;9975;48.046;7.804;2022-10-19T11:31:56;15.80;99.90
19654;DHT22;9975;48.046;7.804;2022-10-19T11:37:23;15.80;99.90
19654;DHT22;9975;48.046;7.804;2022-10-19T11:40:14;15.90;99.90
19654;DHT22;9975;48.046;7.804;2022-10-19T11:43:06;15.90;99.90
19654;DHT22;9975;48.046;7.804;2022-10-19T11:45:46;16.00;99.90
19654;DHT22;9975;48.046;7.804;2022-10-19T11:56:42;16.00;99.90
19654;DHT22;9975;48.046;7.804;2022-10-19T12:01:49;16.00;99.90
19654;DHT22;9975;48.046;7.804;2022-10-19T12:06:57;16.10;99.90
19654;DHT22;9975;48.046;7.804;2022-10-19T12:14:43;16.00;99.90
19654;DHT22;9975;48.046;7.804;2022-10-19T12:17:24;16.00;99.90
19654;DHT22;9975;48.046;7.804;2022-10-19T12:19:54;16.00;99.90
19654;DHT22;9975;48.046;7.804;2022-10-19T12:22:26;15.90;99.90
19654;DHT22;9975;48.046;7.804;2022-10-19T12:24:54;15.90;99.90
19654;DHT22;9975;48.046;7.804;2022-10-19T12:27:38;15.80;99.90
19654;DHT22;9975;48.046;7.804;2022-10-19T12:30:11;15.90;99.90
19654;DHT22;9975;48.046;7.804;2022-10-19T12:37:57;15.90;99.90
19654;DHT22;9975;48.046;7.804;2022-10-19T12:40:42;15.80;99.90
19654;DHT22;9975;48.046;7.804;2022-10-19T12:44:08;15.80;99.90
19654;DHT22;9975;48.046;7.804;2022-10-19T12:49:43;15.90;99.90
19654;DHT22;9975;48.046;7.804;2022-10-19T12:52:09;15.90;99.90
19654;DHT22;9975;48.046;7.804;2022-10-19T12:54:37;15.90;99.90
19654;DHT22;9975;48.046;7.804;2022-10-19T12:57:25;15.90;99.90
19654;DHT22;9975;48.046;7.804;2022-10-19T13:00:05;16.00;99.90
19654;DHT22;9975;48.046;7.804;2022-10-19T13:02:34;16.10;99.90
19654;DHT22;9975;48.046;7.804;2022-10-19T13:05:01;16.20;99.90
19654;DHT22;9975;48.046;7.804;2022-10-19T13:07:29;16.30;99.90
19654;DHT22;9975;48.046;7.804;2022-10-19T13:10:04;16.30;99.90
19654;DHT22;9975;48.046;7.804;2022-10-19T13:12:44;16.30;99.90
19654;DHT22;9975;48.046;7.804;2022-10-19T13:18:11;16.20;99.90
19654;DHT22;9975;48.046;7.804;2022-10-19T13:25:40;16.20;99.90
19654;DHT22;9975;48.046;7.804;2022-10-19T13:41:10;16.40;99.90
19654;DHT22;9975;48.046;7.804;2022-10-19T13:46:20;16.20;99.90
19654;DHT22;9975;48.046;7.804;2022-10-19T13:52:18;16.30;99.90
19654;DHT22;9975;48.046;7.804;2022-10-19T14:01:09;16.40;99.90
19654;DHT22;9975;48.046;7.804;2022-10-19T14:06:42;16.50;99.90
19654;DHT22;9975;48.046;7.804;2022-10-19T14:12:23;16.70;99.90
19654;DHT22;9975;48.046;7.804;2022-10-19T14:14:48;16.80;99.90
19654;DHT22;9975;48.046;7.804;2022-10-19T14:17:40;16.80;99.90
19654;DHT22;9975;48.046;7.804;2022-10-19T14:20:39;16.80;99.90
19654;DHT22;9975;48.046;7.804;2022-10-19T14:23:26;16.80;99.90
19654;DHT22;9975;48.046;7.804;2022-10-19T14:26:06;16.90;99.90
19654;DHT22;9975;48.046;7.804;2022-10-19T14:28:36;16.90;99.90
19654;DHT22;9975;48.046;7.804;2022-10-19T14:31:18;16.90;99.90
19654;DHT22;9975;48.046;7.804;2022-10-19T14:33:51;17.00;99.90
19654;DHT22;9975;48.046;7.804;2022-10-19T14:36:22;17.00;99.90
19654;DHT22;9975;48.046;7.804;2022-10-19T14:38:53;17.00;99.90
19654;DHT22;9975;48.046;7.804;2022-10-19T14:41:30;17.10;99.90
19654;DHT22;9975;48.046;7.804;2022-10-19T14:43:58;17.10;99.90
19654;DHT22;9975;48.046;7.804;2022-10-19T14:46:29;17.10;99.90
19654;DHT22;9975;48.046;7.804;2022-10-19T14:49:03;17.10;99.90
19654;DHT22;9975;48.046;7.804;2022-10-19T14:54:10;17.10;99.90
19654;DHT22;9975;48.046;7.804;2022-10-19T15:00:02;17.20;99.90
19654;DHT22;9975;48.046;7.804;2022-10-19T15:02:38;17.20;99.90
19654;DHT22;9975;48.046;7.804;2022-10-19T15:05:19;17.20;99.90
19654;DHT22;9975;48.046;7.804;2022-10-19T15:07:45;17.20;99.90
19654;DHT22;9975;48.046;7.804;2022-10-19T15:10:44;17.20;99.90
19654;DHT22;9975;48.046;7.804;2022-10-19T15:13:21;17.10;99.90
19654;DHT22;9975;48.046;7.804;2022-10-19T15:15:50;17.00;99.90
19654;DHT22;9975;48.046;7.804;2022-10-19T15:18:17;16.90;99.90
19654;DHT22;9975;48.046;7.804;2022-10-19T15:20:42;16.70;99.90
19654;DHT22;9975;48.046;7.804;2022-10-19T15:26:11;16.60;99.90
19654;DHT22;9975;48.046;7.804;2022-10-19T15:28:38;16.60;99.90
19654;DHT22;9975;48.046;7.804;2022-10-19T15:31:28;16.60;99.90
19654;DHT22;9975;48.046;7.804;2022-10-19T15:33:59;16.60;99.90
19654;DHT22;9975;48.046;7.804;2022-10-19T15:36:25;16.60;99.90
19654;DHT22;9975;48.046;7.804;2022-10-19T15:38:59;16.50;99.90
19654;DHT22;9975;48.046;7.804;2022-10-19T15:41:31;16.50;99.90
19654;DHT22;9975;48.046;7.804;2022-10-19T15:43:59;16.50;99.90
19654;DHT22;9975;48.046;7.804;2022-10-19T15:46:31;16.50;99.90
19654;DHT22;9975;48.046;7.804;2022-10-19T15:48:59;16.60;99.90
19654;DHT22;9975;48.046;7.804;2022-10-19T15:53:59;16.60;99.90
19654;DHT22;9975;48.046;7.804;2022-10-19T15:56:27;16.50;99.90
19654;DHT22;9975;48.046;7.804;2022-10-19T15:58:55;16.50;99.90
19654;DHT22;9975;48.046;7.804;2022-10-19T16:01:23;16.50;99.90
19654;DHT22;9975;48.046;7.804;2022-10-19T16:03:51;16.50;99.90
19654;DHT22;9975;48.046;7.804;2022-10-19T16:06:17;16.40;99.90
19654;DHT22;9975;48.046;7.804;2022-10-19T16:08:44;16.40;99.90
19654;DHT22;9975;48.046;7.804;2022-10-19T16:11:15;16.50;99.90
19654;DHT22;9975;48.046;7.804;2022-10-19T16:13:41;16.60;99.90
19654;DHT22;9975;48.046;7.804;2022-10-19T16:16:09;16.50;99.90
19654;DHT22;9975;48.046;7.804;2022-10-19T16:18:36;16.50;99.90
19654;DHT22;9975;48.046;7.804;2022-10-19T16:21:02;16.60;99.90
19654;DHT22;9975;48.046;7.804;2022-10-19T16:23:28;16.60;99.90
19654;DHT22;9975;48.046;7.804;2022-10-19T16:25:55;16.50;99.90
19654;DHT22;9975;48.046;7.804;2022-10-19T16:28:20;16.50;99.90
19654;DHT22;9975;48.046;7.804;2022-10-19T16:30:52;16.50;99.90
19654;DHT22;9975;48.046;7.804;2022-10-19T16:33:18;16.50;99.90
19654;DHT22;9975;48.046;7.804;2022-10-19T16:35:44;16.50;99.90
19654;DHT22;9975;48.046;7.804;2022-10-19T16:38:09;16.50;99.90
19654;DHT22;9975;48.046;7.804;2022-10-19T16:40:35;16.40;99.90
19654;DHT22;9975;48.046;7.804;2022-10-19T16:43:01;16.50;99.90
19654;DHT22;9975;48.046;7.804;2022-10-19T16:45:27;16.40;99.90
19654;DHT22;9975;48.046;7.804;2022-10-19T16:47:52;16.40;99.90
19654;DHT22;9975;48.046;7.804;2022-10-19T16:50:18;16.40;99.90
19654;DHT22;9975;48.046;7.804;2022-10-19T16:52:44;16.30;99.90
19654;DHT22;9975;48.046;7.804;2022-10-19T16:55:10;16.30;99.90
19654;DHT22;9975;48.046;7.804;2022-10-19T16:57:36;16.40;99.90
19654;DHT22;9975;48.046;7.804;2022-10-19T17:00:03;16.30;99.90
19654;DHT22;9975;48.046;7.804;2022-10-19T17:02:29;16.30;99.90
19654;DHT22;9975;48.046;7.804;2022-10-19T17:04:55;16.10;99.90
19654;DHT22;9975;48.046;7.804;2022-10-19T17:07:21;16.10;99.90
19654;DHT22;9975;48.046;7.804;2022-10-19T17:09:47;16.20;99.90
19654;DHT22;9975;48.046;7.804;2022-10-19T17:12:13;16.20;99.90
19654;DHT22;9975;48.046;7.804;2022-10-19T17:14:40;16.20;99.90
19654;DHT22;9975;48.046;7.804;2022-10-19T17:17:09;16.20;99.90
19654;DHT22;9975;48.046;7.804;2022-10-19T17:19:36;16.10;99.90
19654;DHT22;9975;48.046;7.804;2022-10-19T17:22:02;16.10;99.90
19654;DHT22;9975;48.046;7.804;2022-10-19T17:24:29;16.00;99.90
19654;DHT22;9975;48.046;7.804;2022-10-19T17:26:55;15.90;99.90
19654;DHT22;9975;48.046;7.804;2022-10-19T17:29:22;16.00;99.90
19654;DHT22;9975;48.046;7.804;2022-10-19T17:31:48;16.00;99.90
19654;DHT22;9975;48.046;7.804;2022-10-19T17:34:15;16.00;99.90
19654;DHT22;9975;48.046;7.804;2022-10-19T17:36:43;15.90;99.90
19654;DHT22;9975;48.046;7.804;2022-10-19T17:39:16;16.00;99.90
19654;DHT22;9975;48.046;7.804;2022-10-19T17:41:44;16.00;99.90
19654;DHT22;9975;48.046;7.804;2022-10-19T17:44:10;16.00;99.90
19654;DHT22;9975;48.046;7.804;2022-10-19T17:46:36;16.00;99.90
19654;DHT22;9975;48.046;7.804;2022-10-19T17:49:02;16.00;99.90
19654;DHT22;9975;48.046;7.804;2022-10-19T17:51:30;16.00;99.90
19654;DHT22;9975;48.046;7.804;2022-10-19T17:53:58;16.00;99.90
19654;DHT22;9975;48.046;7.804;2022-10-19T17:56:25;16.00;99.90
19654;DHT22;9975;48.046;7.804;2022-10-19T17:58:51;16.10;99.90
19654;DHT22;9975;48.046;7.804;2022-10-19T18:01:19;16.10;99.90
19654;DHT22;9975;48.046;7.804;2022-10-19T18:03:45;16.10;99.90
19654;DHT22;9975;48.046;7.804;2022-10-19T18:06:16;16.00;99.90
19654;DHT22;9975;48.046;7.804;2022-10-19T18:08:45;16.10;99.90
19654;DHT22;9975;48.046;7.804;2022-10-19T18:11:31;16.10;99.90
19654;DHT22;9975;48.046;7.804;2022-10-19T18:14:00;16.00;99.90
19654;DHT22;9975;48.046;7.804;2022-10-19T18:16:33;16.10;99.90
19654;DHT22;9975;48.046;7.804;2022-10-19T18:19:00;16.10;99.90
19654;DHT22;9975;48.046;7.804;2022-10-19T18:21:29;16.10;99.90
19654;DHT22;9975;48.046;7.804;2022-10-19T18:23:57;16.10;99.90
19654;DHT22;9975;48.046;7.804;2022-10-19T18:26:25;16.20;99.90
19654;DHT22;9975;48.046;7.804;2022-10-19T18:28:52;16.20;99.90
19654;DHT22;9975;48.046;7.804;2022-10-19T18:31:26;16.20;99.90
19654;DHT22;9975;48.046;7.804;2022-10-19T18:34:05;16.20;99.90
19654;DHT22;9975;48.046;7.804;2022-10-19T18:36:32;16.10;99.90
19654;DHT22;9975;48.046;7.804;2022-10-19T18:39:00;16.10;99.90
19654;DHT22;9975;48.046;7.804;2022-10-19T18:41:26;16.10;99.90
19654;DHT22;9975;48.046;7.804;2022-10-19T18:43:55;16.10;99.90
19654;DHT22;9975;48.046;7.804;2022-10-19T18:46:22;16.10;99.90
19654;DHT22;9975;48.046;7.804;2022-10-19T18:48:48;16.00;99.90
19654;DHT22;9975;48.046;7.804;2022-10-19T18:51:15;16.10;99.90
19654;DHT22;9975;48.046;7.804;2022-10-19T18:53:43;16.00;99.90
19654;DHT22;9975;48.046;7.804;2022-10-19T18:56:10;16.00;99.90
19654;DHT22;9975;48.046;7.804;2022-10-19T18:58:36;15.90;99.90
19654;DHT22;9975;48.046;7.804;2022-10-19T19:01:12;15.90;99.90
19654;DHT22;9975;48.046;7.804;2022-10-19T19:03:41;15.90;99.90
19654;DHT22;9975;48.046;7.804;2022-10-19T19:06:09;15.80;99.90
19654;DHT22;9975;48.046;7.804;2022-10-19T19:08:35;15.80;99.90
19654;DHT22;9975;48.046;7.804;2022-10-19T19:11:15;15.80;99.90
19654;DHT22;9975;48.046;7.804;2022-10-19T19:13:47;15.80;99.90
19654;DHT22;9975;48.046;7.804;2022-10-19T19:16:13;15.80;99.90
19654;DHT22;9975;48.046;7.804;2022-10-19T19:18:39;15.80;99.90
19654;DHT22;9975;48.046;7.804;2022-10-19T19:21:15;15.80;99.90
19654;DHT22;9975;48.046;7.804;2022-10-19T19:23:42;15.80;99.90
19654;DHT22;9975;48.046;7.804;2022-10-19T19:26:08;15.80;99.90
19654;DHT22;9975;48.046;7.804;2022-10-19T19:28:35;15.80;99.90
19654;DHT22;9975;48.046;7.804;2022-10-19T19:31:02;15.80;99.90
19654;DHT22;9975;48.046;7.804;2022-10-19T19:33:28;15.90;99.90
19654;DHT22;9975;48.046;7.804;2022-10-19T19:35:54;15.90;99.90
19654;DHT22;9975;48.046;7.804;2022-10-19T19:38:19;15.90;99.90
19654;DHT22;9975;48.046;7.804;2022-10-19T19:40:45;15.90;99.90
19654;DHT22;9975;48.046;7.804;2022-10-19T19:43:12;15.90;99.90
19654;DHT22;9975;48.046;7.804;2022-10-19T19:45:39;15.90;99.90
19654;DHT22;9975;48.046;7.804;2022-10-19T19:48:06;15.90;99.90
19654;DHT22;9975;48.046;7.804;2022-10-19T19:50:33;15.80;99.90
19654;DHT22;9975;48.046;7.804;2022-10-19T19:52:59;15.80;99.90
19654;DHT22;9975;48.046;7.804;2022-10-19T19:55:25;15.80;99.90
19654;DHT22;9975;48.046;7.804;2022-10-19T19:57:51;15.80;99.90